KBQK/BQK METAR and TAF weather

Enter ICAO airport designator
Station Type Date Time Source
KBQK METAR 2024/04/17 19:35 UTC NOAA

KBQK 171935Z AUTO 14013KT 7SM CLR 27/18 A3011 RMK AO2 T02660184


Station Type Date Time Source
KBQK Decoded METAR 2024/04/17 19:35 UTC NOAA

Brunswick / Glynco, GA, United States (KBQK) 31-15N 081-28W
Apr 17, 2024 - 03:35 PM EDT / 2024.04.17 1935 UTC
Wind: from the SE (140 degrees) at 15 MPH (13 KT):0
Visibility: 7 mile(s):0
Sky conditions: clear
Temperature: 79.9 F (26.6 C)
Dew Point: 65.1 F (18.4 C)
Relative Humidity: 60%
Pressure (altimeter): 30.11 in. Hg (1019 hPa)
ob: KBQK 171935Z AUTO 14013KT 7SM CLR 27/18 A3011 RMK AO2 T02660184
cycle: 19

Station Type Date Time Source
KBQK TAF UTC NOAA

Error!

Example: see airport list